Time;durP1;ratioP1;P1;durP2;ratioP2;P2;SDS_P1;SDS_P2;PMS_P1;PMS_P2;Temp;Humidity;BMP_temperature;BMP_pressure;BME280_temperature;BME280_humidity;BME280_pressure;Samples;Min_cycle;Max_cycle;Signal;HPM_P1;HPM_P2
2021/04/27 00:02:17;;;;;;;;;;;;;;;21.83;29.81;97687.81;5033739;28;1277;-88
2021/04/27 00:04:43;;;;;;;;;;;;;;;21.60;29.94;97688.16;5016663;28;1276;-87
2021/04/27 00:07:12;;;;;;;;;;;;;;;21.52;30.22;97681.16;5017787;28;565;-87
2021/04/27 00:09:38;;;;;;;;;;;;;;;21.61;30.06;97686.94;5016637;28;1895;-87
2021/04/27 00:12:05;;;;;;;;;;;;;;;21.51;30.24;97699.38;5001340;28;1206;-87
2021/04/27 00:14:31;;;;;;;;;;;;;;;21.59;30.16;97692.25;5017367;28;1177;-88
2021/04/27 00:17:34;;;;;;;;;;;;;;;21.59;30.16;97690.19;5017318;28;1062;-88
2021/04/27 00:20:00;;;;;;;;;;;;;;;21.47;30.59;97699.50;5033665;28;1161;-88
2021/04/27 00:22:26;;;;;;;;;;;;;;;21.52;30.39;97695.31;5017377;28;1160;-88
2021/04/27 00:24:52;;;;;;;;;;;;;;;21.56;30.64;97679.00;5017225;28;752;-88
2021/04/27 00:27:18;;;;;;;;;;;;;;;21.52;30.46;97678.31;5016381;28;1199;-88
2021/04/27 00:29:45;;;;;;;;;;;;;;;21.51;30.43;97679.56;5017095;28;1952;-88
2021/04/27 00:32:10;;;;;;;;;;;;;;;21.43;30.55;97681.03;5001192;28;1153;-88
2021/04/27 00:34:36;;;;;;;;;;;;;;;21.50;30.50;97677.97;5000954;28;1228;-87
2021/04/27 00:37:05;;;;;;;;;;;;;;;21.36;30.86;97675.59;5000499;28;1324;-88
2021/04/27 00:39:30;;;;;;;;;;;;;;;21.48;30.48;97680.47;5016966;28;1235;-87
2021/04/27 00:41:56;;;;;;;;;;;;;;;21.37;30.65;97677.19;5000372;28;1249;-88
2021/04/27 00:44:41;;;;;;;;;;;;;;;21.44;30.63;97677.72;5032964;28;974;-87
2021/04/27 00:47:07;;;;;;;;;;;;;;;21.38;30.72;97673.09;5032844;28;843;-88
2021/04/27 00:49:32;;;;;;;;;;;;;;;21.52;30.30;97661.34;5000283;28;1946;-88
2021/04/27 00:51:58;;;;;;;;;;;;;;;21.71;30.76;97663.16;5000320;28;1144;-88
2021/04/27 00:54:26;;;;;;;;;;;;;;;22.17;29.97;97654.38;5001227;28;1243;-88
2021/04/27 00:56:53;;;;;;;;;;;;;;;22.32;29.48;97659.06;5032676;28;1091;-88
2021/04/27 00:59:19;;;;;;;;;;;;;;;21.87;29.76;97653.72;5000468;28;1215;-88
2021/04/27 01:01:45;;;;;;;;;;;;;;;21.67;29.86;97651.13;5000334;28;1159;-89
2021/04/27 01:04:11;;;;;;;;;;;;;;;21.63;29.94;97644.78;5017397;28;1117;-88
2021/04/27 01:06:37;;;;;;;;;;;;;;;21.69;29.72;97634.47;5016483;28;1208;-88
2021/04/27 01:09:05;;;;;;;;;;;;;;;21.68;29.97;97641.41;5016047;28;1906;-87
2021/04/27 01:11:35;;;;;;;;;;;;;;;21.49;30.34;97642.41;5032461;28;1270;-87
2021/04/27 01:14:11;;;;;;;;;;;;;;;21.54;30.36;97633.34;5015910;28;1079;-87
2021/04/27 01:16:38;;;;;;;;;;;;;;;21.53;30.53;97637.44;5016053;28;1164;-87
2021/04/27 01:19:07;;;;;;;;;;;;;;;21.53;30.59;97643.09;5016172;28;1464;-88
2021/04/27 01:21:33;;;;;;;;;;;;;;;21.45;30.55;97645.38;5032513;28;1196;-87
2021/04/27 01:24:14;;;;;;;;;;;;;;;21.42;30.75;97651.13;5016518;28;1310;-87
2021/04/27 01:26:40;;;;;;;;;;;;;;;21.43;30.56;97641.41;5016181;28;1323;-88
2021/04/27 01:29:06;;;;;;;;;;;;;;;21.55;30.75;97634.94;5032467;28;1983;-88
2021/04/27 01:31:33;;;;;;;;;;;;;;;21.40;30.78;97645.94;5031621;28;1321;-88
2021/04/27 01:34:00;;;;;;;;;;;;;;;21.54;30.56;97647.50;5016003;28;1140;-87
2021/04/27 01:36:26;;;;;;;;;;;;;;;21.49;30.46;97645.25;5016175;28;1199;-87
2021/04/27 01:38:56;;;;;;;;;;;;;;;21.47;30.63;97653.41;5016072;28;1168;-88
2021/04/27 01:41:28;;;;;;;;;;;;;;;21.46;30.73;97658.28;5033081;28;707;-88
2021/04/27 01:43:54;;;;;;;;;;;;;;;21.52;30.37;97658.50;4999825;28;1124;-87
2021/04/27 01:46:20;;;;;;;;;;;;;;;21.92;30.63;97660.88;5015565;28;1340;-88
2021/04/27 01:48:49;;;;;;;;;;;;;;;22.38;29.71;97658.50;5016255;28;1964;-88
2021/04/27 01:51:16;;;;;;;;;;;;;;;22.33;29.57;97660.69;4999306;28;1194;-88
2021/04/27 01:54:01;;;;;;;;;;;;;;;21.86;30.21;97649.28;5020875;28;608;-87
2021/04/27 01:56:30;;;;;;;;;;;;;;;21.73;29.85;97649.31;5032171;28;1338;-87
2021/04/27 01:58:56;;;;;;;;;;;;;;;21.72;29.97;97639.25;5016087;28;878;-88
2021/04/27 02:01:31;;;;;;;;;;;;;;;21.76;29.82;97642.75;5032858;28;1006;-87
2021/04/27 02:03:57;;;;;;;;;;;;;;;21.49;30.66;97639.59;5015219;28;1069;-88
2021/04/27 02:06:46;;;;;;;;;;;;;;;21.67;30.18;97639.03;5005794;28;1030;-88
2021/04/27 02:09:12;;;;;;;;;;;;;;;21.60;30.58;97640.03;5015762;28;1906;-87
2021/04/27 02:11:39;;;;;;;;;;;;;;;21.70;30.13;97638.88;5015336;28;1290;-88
2021/04/27 02:14:07;;;;;;;;;;;;;;;21.69;30.22;97628.81;5015933;28;1082;-88
2021/04/27 02:17:00;;;;;;;;;;;;;;;21.58;30.49;97625.53;5017797;28;957;-88
2021/04/27 02:19:26;;;;;;;;;;;;;;;21.55;30.62;97634.94;5015747;28;1044;-88
2021/04/27 02:22:09;;;;;;;;;;;;;;;21.61;30.39;97623.84;5017462;28;1062;-87
2021/04/27 02:24:49;;;;;;;;;;;;;;;21.42;31.11;97634.16;5003156;28;890;-88
2021/04/27 02:27:14;;;;;;;;;;;;;;;21.58;30.79;97642.53;5015430;28;1062;-88
2021/04/27 02:29:42;;;;;;;;;;;;;;;21.60;30.57;97637.19;5016322;28;1922;-88
2021/04/27 02:32:16;;;;;;;;;;;;;;;21.58;30.82;97636.88;5015908;28;1312;-88
2021/04/27 02:34:43;;;;;;;;;;;;;;;21.54;30.66;97631.31;5015187;28;872;-87
2021/04/27 02:37:10;;;;;;;;;;;;;;;21.53;30.71;97640.28;4999112;28;981;-88
2021/04/27 02:39:39;;;;;;;;;;;;;;;21.64;30.60;97639.91;5000233;28;1205;-88
2021/04/27 02:42:05;;;;;;;;;;;;;;;21.50;30.84;97635.50;4999369;28;1209;-88
2021/04/27 02:44:54;;;;;;;;;;;;;;;21.57;30.34;97640.94;5016626;28;1132;-87
2021/04/27 02:47:40;;;;;;;;;;;;;;;21.43;30.90;97647.06;5034440;28;1037;-87
2021/04/27 02:50:07;;;;;;;;;;;;;;;21.63;30.01;97647.63;4997248;28;1078;-88
2021/04/27 02:52:35;;;;;;;;;;;;;;;21.52;30.31;97638.69;5019487;28;1251;-87
2021/04/27 02:55:04;;;;;;;;;;;;;;;21.40;30.62;97647.94;5020293;28;1113;-88
2021/04/27 02:57:49;;;;;;;;;;;;;;;21.37;30.64;97651.72;5038138;28;773;-88
2021/04/27 03:00:16;;;;;;;;;;;;;;;21.52;30.31;97656.47;5019634;28;1413;-87
2021/04/27 03:03:01;;;;;;;;;;;;;;;22.04;30.50;97651.53;5024558;28;918;-88
2021/04/27 03:05:27;;;;;;;;;;;;;;;22.23;30.17;97656.19;5019849;28;1184;-88
2021/04/27 03:08:14;;;;;;;;;;;;;;;22.10;29.90;97661.88;5036475;28;1891;-89
2021/04/27 03:10:44;;;;;;;;;;;;;;;21.81;30.34;97656.34;5019125;28;1287;-88
2021/04/27 03:13:13;;;;;;;;;;;;;;;21.59;30.35;97656.22;5020144;28;1141;-88
2021/04/27 03:16:01;;;;;;;;;;;;;;;21.63;30.14;97656.13;5024532;28;1056;-86
2021/04/27 03:18:28;;;;;;;;;;;;;;;21.66;30.18;97658.06;5002922;28;1054;-88
2021/04/27 03:21:03;;;;;;;;;;;;;;;21.56;30.48;97671.31;5019102;28;1086;-88
2021/04/27 03:23:30;;;;;;;;;;;;;;;21.63;30.48;97661.78;5020154;28;1230;-88
2021/04/27 03:25:56;;;;;;;;;;;;;;;21.62;30.56;97665.06;5019112;28;1160;-87
2021/04/27 03:28:33;;;;;;;;;;;;;;;21.57;30.70;97657.94;5021039;28;1895;-88
2021/04/27 03:31:04;;;;;;;;;;;;;;;21.63;30.61;97664.63;5003421;28;1212;-88
2021/04/27 03:34:01;;;;;;;;;;;;;;;21.66;30.50;97665.72;5037357;28;937;-88
2021/04/27 03:36:28;;;;;;;;;;;;;;;21.63;30.41;97673.09;5034607;28;913;-87
2021/04/27 03:38:59;;;;;;;;;;;;;;;21.53;30.56;97682.72;5035745;28;1483;-89
2021/04/27 03:41:41;;;;;;;;;;;;;;;21.66;30.33;97679.88;5022764;28;1398;-88
2021/04/27 03:44:10;;;;;;;;;;;;;;;21.60;30.46;97699.47;5003934;28;1191;-88
2021/04/27 03:46:40;;;;;;;;;;;;;;;21.47;30.90;97707.97;5018953;28;1375;-87
2021/04/27 03:49:09;;;;;;;;;;;;;;;21.51;30.81;97719.19;5003430;28;1987;-88
2021/04/27 03:51:40;;;;;;;;;;;;;;;21.52;30.90;97717.94;5035955;28;934;-88
2021/04/27 03:54:15;;;;;;;;;;;;;;;21.53;30.90;97716.69;5017759;28;1149;-89
2021/04/27 03:56:43;;;;;;;;;;;;;;;21.46;30.84;97697.13;5019206;28;1091;-89
2021/04/27 03:59:11;;;;;;;;;;;;;;;21.38;31.26;97692.91;5020329;28;1120;-88
2021/04/27 04:01:37;;;;;;;;;;;;;;;21.53;30.91;97682.72;5018015;28;1325;-88
2021/04/27 04:04:04;;;;;;;;;;;;;;;21.49;30.99;97673.56;5034799;28;1060;-88
2021/04/27 04:06:30;;;;;;;;;;;;;;;21.48;30.68;97678.44;5002372;28;1057;-88
2021/04/27 04:09:01;;;;;;;;;;;;;;;21.42;30.81;97679.44;5019419;28;1975;-88
2021/04/27 04:11:34;;;;;;;;;;;;;;;21.46;30.82;97674.47;5018682;28;1191;-88
2021/04/27 04:14:03;;;;;;;;;;;;;;;21.53;30.67;97677.06;5019039;28;1069;-88
2021/04/27 04:16:42;;;;;;;;;;;;;;;21.60;30.68;97685.31;5036320;28;879;-88
2021/04/27 04:19:10;;;;;;;;;;;;;;;21.47;30.74;97687.38;5034533;28;1382;-88
2021/04/27 04:21:43;;;;;;;;;;;;;;;21.51;30.48;97682.41;5019803;28;1125;-88
2021/04/27 04:24:12;;;;;;;;;;;;;;;21.47;30.68;97676.06;5017165;28;1285;-88
2021/04/27 04:26:38;;;;;;;;;;;;;;;21.62;30.29;97682.84;5018061;28;1168;-88
2021/04/27 04:29:32;;;;;;;;;;;;;;;22.22;30.36;97682.91;5009798;28;1979;-88
2021/04/27 04:32:20;;;;;;;;;;;;;;;22.51;29.78;97673.44;5016237;28;1009;-88
2021/04/27 04:35:07;;;;;;;;;;;;;;;22.02;30.02;97674.69;5023314;28;994;-89
2021/04/27 04:37:51;;;;;;;;;;;;;;;21.71;30.51;97679.31;5023868;28;449;-88
2021/04/27 04:40:52;;;;;;;;;;;;;;;21.70;30.25;97675.69;4948410;29;1051;-88
2021/04/27 04:43:43;;;;;;;;;;;;;;;21.70;30.09;97672.88;4995376;28;958;-88
2021/04/27 04:46:45;;;;;;;;;;;;;;;21.54;30.50;97670.94;5039065;28;822;-88
2021/04/27 04:49:26;;;;;;;;;;;;;;;21.61;30.32;97672.78;5022521;28;1977;-88
2021/04/27 04:52:16;;;;;;;;;;;;;;;21.52;30.85;97661.34;5023526;28;595;-88
2021/04/27 04:55:01;;;;;;;;;;;;;;;21.51;30.81;97671.09;5023981;28;501;-88
2021/04/27 04:57:45;;;;;;;;;;;;;;;21.60;30.71;97662.69;5023020;28;604;-88
2021/04/27 05:00:16;;;;;;;;;;;;;;;21.55;30.64;97660.41;5018177;28;1223;-88
2021/04/27 05:03:05;;;;;;;;;;;;;;;21.59;30.36;97656.22;5001057;28;979;-88
2021/04/27 05:05:50;;;;;;;;;;;;;;;21.58;30.43;97665.19;5021969;28;952;-88
2021/04/27 05:08:47;;;;;;;;;;;;;;;21.65;30.22;97667.78;5002005;28;1886;-88
2021/04/27 05:11:32;;;;;;;;;;;;;;;21.60;30.58;97659.84;5003629;28;561;-88
2021/04/27 05:14:12;;;;;;;;;;;;;;;21.58;30.49;97665.19;4999973;28;1013;-88
2021/04/27 05:16:46;;;;;;;;;;;;;;;21.42;30.88;97671.75;5014806;28;1041;-89
2021/04/27 05:19:12;;;;;;;;;;;;;;;21.39;30.78;97663.34;4997630;28;1133;-87
2021/04/27 05:21:41;;;;;;;;;;;;;;;21.44;30.63;97654.31;4997113;28;1140;-86
2021/04/27 05:24:07;;;;;;;;;;;;;;;21.42;30.62;97656.81;4981003;28;1120;-88
2021/04/27 05:26:36;;;;;;;;;;;;;;;21.48;30.41;97658.59;5013848;28;630;-89
2021/04/27 05:29:03;;;;;;;;;;;;;;;21.84;30.66;97661.09;5012392;28;1962;-88
2021/04/27 05:31:29;;;;;;;;;;;;;;;22.29;30.03;97662.84;4996597;28;1028;-88
2021/04/27 05:33:58;;;;;;;;;;;;;;;22.48;29.47;97669.47;5015084;28;941;-88
2021/04/27 05:36:24;;;;;;;;;;;;;;;22.56;29.29;97670.00;4997264;28;1216;-89
2021/04/27 05:38:59;;;;;;;;;;;;;;;22.02;29.94;97676.69;4998442;28;980;-88
2021/04/27 05:41:25;;;;;;;;;;;;;;;21.77;30.26;97667.00;4997771;28;1177;-88
2021/04/27 05:43:52;;;;;;;;;;;;;;;21.72;30.24;97663.94;4997975;28;1031;-88
2021/04/27 05:46:19;;;;;;;;;;;;;;;21.70;30.53;97667.22;5012756;28;1055;-88
2021/04/27 05:48:45;;;;;;;;;;;;;;;21.76;30.50;97665.41;4997328;28;1982;-88
2021/04/27 05:51:14;;;;;;;;;;;;;;;21.84;30.37;97672.41;5013694;28;898;-89
2021/04/27 05:53:40;;;;;;;;;;;;;;;21.77;30.25;97672.66;4981969;28;1251;-88
2021/04/27 05:56:06;;;;;;;;;;;;;;;21.57;30.62;97672.09;4996794;28;1059;-88
2021/04/27 05:58:35;;;;;;;;;;;;;;;21.69;30.38;97676.16;4997774;28;1173;-88
2021/04/27 06:01:00;;;;;;;;;;;;;;;21.62;30.68;97660.22;4981516;28;1083;-88
2021/04/27 06:03:27;;;;;;;;;;;;;;;21.55;30.71;97660.41;4998244;28;1083;-88
2021/04/27 06:05:56;;;;;;;;;;;;;;;21.68;30.51;97664.03;5012601;28;998;-87
2021/04/27 06:08:22;;;;;;;;;;;;;;;21.67;30.28;97667.34;4997633;28;1906;-88
2021/04/27 06:10:49;;;;;;;;;;;;;;;21.58;30.58;97668.00;5008403;28;1172;-87
2021/04/27 06:13:17;;;;;;;;;;;;;;;21.47;30.59;97657.03;4998723;28;741;-88
2021/04/27 06:15:43;;;;;;;;;;;;;;;21.60;30.29;97659.84;4997278;28;745;-88
2021/04/27 06:18:13;;;;;;;;;;;;;;;21.56;30.54;97668.47;4998360;28;1348;-88
2021/04/27 06:20:49;;;;;;;;;;;;;;;21.56;30.36;97668.47;4980611;28;1094;-88
2021/04/27 06:23:26;;;;;;;;;;;;;;;21.53;30.33;97674.25;5013913;28;984;-88
2021/04/27 06:25:52;;;;;;;;;;;;;;;21.74;29.96;97684.09;4993473;28;1181;-88
2021/04/27 06:28:18;;;;;;;;;;;;;;;21.68;30.30;97692.38;4981083;28;1954;-87
2021/04/27 06:30:43;;;;;;;;;;;;;;;21.72;30.29;97686.59;4980542;28;1043;-88
2021/04/27 06:33:11;;;;;;;;;;;;;;;21.60;30.10;97688.16;5013054;28;918;-88
2021/04/27 06:35:37;;;;;;;;;;;;;;;21.66;30.26;97694.88;4996574;28;1144;-88
2021/04/27 06:38:03;;;;;;;;;;;;;;;21.53;30.24;97709.00;4981130;28;1214;-89
2021/04/27 06:40:29;;;;;;;;;;;;;;;21.72;30.39;97704.38;4981050;28;1205;-88
2021/04/27 06:43:09;;;;;;;;;;;;;;;22.14;30.21;97704.25;5015339;28;717;-87
2021/04/27 06:45:36;;;;;;;;;;;;;;;22.39;30.15;97708.28;4996552;28;1310;-88
2021/04/27 06:48:06;;;;;;;;;;;;;;;22.11;29.90;97696.66;5013647;28;1949;-89
2021/04/27 06:50:51;;;;;;;;;;;;;;;21.87;30.12;97690.56;4979917;28;1282;-88
2021/04/27 06:53:22;;;;;;;;;;;;;;;21.75;30.16;97686.47;5030404;28;748;-89
2021/04/27 06:55:50;;;;;;;;;;;;;;;21.76;29.79;97690.91;5012882;28;862;-89
2021/04/27 06:58:16;;;;;;;;;;;;;;;21.70;30.10;97695.53;4997861;28;1366;-88
2021/04/27 07:00:43;;;;;;;;;;;;;;;21.62;30.34;97699.06;4996552;28;879;-88
2021/04/27 07:03:10;;;;;;;;;;;;;;;21.76;30.08;97693.72;4996620;28;1370;-89
2021/04/27 07:05:36;;;;;;;;;;;;;;;21.70;30.45;97697.56;4995823;28;990;-87
2021/04/27 07:08:22;;;;;;;;;;;;;;;21.57;30.69;97686.25;5012907;28;1890;-86
2021/04/27 07:10:53;;;;;;;;;;;;;;;21.56;30.70;97685.47;5011143;28;1193;-88
2021/04/27 07:13:19;;;;;;;;;;;;;;;21.72;30.25;97684.56;5016396;28;1105;-88
2021/04/27 07:15:45;;;;;;;;;;;;;;;21.66;30.32;97683.53;4999439;28;1224;-86
2021/04/27 07:18:33;;;;;;;;;;;;;;;21.61;30.32;97674.81;5014545;28;961;-88
2021/04/27 07:21:00;;;;;;;;;;;;;;;21.69;31.20;97676.94;5015248;28;1153;-88
2021/04/27 07:23:29;;;;;;;;;;;;;;;22.17;30.28;97685.53;5018242;28;1248;-89
2021/04/27 07:26:07;;;;;;;;;;;;;;;22.32;30.09;97678.91;5016120;28;1140;-88
2021/04/27 07:28:33;;;;;;;;;;;;;;;21.94;30.10;97681.81;5017992;28;1882;-88
2021/04/27 07:30:59;;;;;;;;;;;;;;;21.70;30.63;97684.19;5016001;28;1294;-88
2021/04/27 07:33:26;;;;;;;;;;;;;;;21.73;30.35;97679.69;5032909;28;950;-88
2021/04/27 07:35:53;;;;;;;;;;;;;;;21.61;30.54;97686.94;5014929;28;1409;-86
2021/04/27 07:38:28;;;;;;;;;;;;;;;21.59;30.60;97678.09;5036070;28;1078;-88
2021/04/27 07:40:59;;;;;;;;;;;;;;;21.56;30.65;97670.50;5019817;28;655;-88
2021/04/27 07:43:27;;;;;;;;;;;;;;;21.63;30.36;97675.94;5029157;28;763;-88
2021/04/27 07:46:02;;;;;;;;;;;;;;;21.59;30.43;97670.38;5019263;28;1074;-88
2021/04/27 07:48:28;;;;;;;;;;;;;;;21.61;30.40;97669.94;5020907;28;1879;-89
2021/04/27 07:50:56;;;;;;;;;;;;;;;21.56;30.56;97662.03;5017265;28;1137;-86
2021/04/27 07:53:21;;;;;;;;;;;;;;;21.58;30.37;97670.84;5010835;28;1297;-74
2021/04/27 07:55:47;;;;;;;;;;;;;;;21.69;30.20;97665.63;5042770;28;662;-71
2021/04/27 07:58:13;;;;;;;;;;;;;;;21.79;30.13;97667.31;5042671;28;644;-73
2021/04/27 08:00:38;;;;;;;;;;;;;;;22.04;29.64;97665.72;5042310;28;714;-71
2021/04/27 08:03:08;;;;;;;;;;;;;;;21.95;29.81;97657.09;5047510;28;949;-88
2021/04/27 08:05:35;;;;;;;;;;;;;;;21.76;30.06;97665.41;5018498;28;1213;-87
2021/04/27 08:08:16;;;;;;;;;;;;;;;21.61;30.25;97655.78;5036436;28;1971;-87
2021/04/27 08:11:05;;;;;;;;;;;;;;;21.64;30.38;97663.38;5019563;28;1333;-89
2021/04/27 08:13:59;;;;;;;;;;;;;;;21.63;30.25;97658.16;5025676;28;805;-89
2021/04/27 08:16:44;;;;;;;;;;;;;;;21.55;30.37;97654.75;5023797;28;855;-88
2021/04/27 08:19:13;;;;;;;;;;;;;;;21.67;30.23;97645.47;5001573;28;1172;-88
2021/04/27 08:21:39;;;;;;;;;;;;;;;21.58;29.93;97645.38;5017976;28;1061;-88
2021/04/27 08:24:20;;;;;;;;;;;;;;;21.76;29.99;97648.44;5030410;28;673;-86
2021/04/27 08:26:46;;;;;;;;;;;;;;;21.65;30.09;97652.81;5016269;28;945;-88
2021/04/27 08:29:12;;;;;;;;;;;;;;;21.58;30.33;97642.53;5017737;28;1902;-88
2021/04/27 08:31:38;;;;;;;;;;;;;;;21.66;29.98;97643.91;5017535;28;1049;-88
2021/04/27 08:34:04;;;;;;;;;;;;;;;21.67;29.94;97645.47;5034086;28;955;-88
2021/04/27 08:36:34;;;;;;;;;;;;;;;21.64;29.91;97646.38;5018793;28;1435;-88
2021/04/27 08:39:01;;;;;;;;;;;;;;;21.62;30.07;97651.72;5034794;28;846;-88
2021/04/27 08:41:26;;;;;;;;;;;;;;;21.49;30.47;97648.06;5018439;28;1096;-87
2021/04/27 08:43:54;;;;;;;;;;;;;;;21.53;30.25;97646.72;5018943;28;1064;-88
2021/04/27 08:46:20;;;;;;;;;;;;;;;21.62;29.98;97646.06;5017300;28;1153;-88
2021/04/27 08:48:58;;;;;;;;;;;;;;;21.64;29.88;97646.38;5035738;28;1962;-87
2021/04/27 08:51:26;;;;;;;;;;;;;;;21.52;30.04;97638.69;5034657;28;913;-88
2021/04/27 08:53:55;;;;;;;;;;;;;;;21.52;30.20;97644.34;5001553;28;1194;-88
2021/04/27 08:56:22;;;;;;;;;;;;;;;21.54;30.23;97651.13;5017705;28;854;-88
2021/04/27 08:58:48;;;;;;;;;;;;;;;21.47;30.32;97636.44;5017561;28;1038;-87
2021/04/27 09:01:14;;;;;;;;;;;;;;;21.49;30.07;97633.91;5001362;28;1251;-88
2021/04/27 09:03:40;;;;;;;;;;;;;;;21.49;30.16;97631.09;5018015;28;1195;-88
2021/04/27 09:06:14;;;;;;;;;;;;;;;21.61;29.88;97627.47;5016924;28;1216;-87
2021/04/27 09:08:41;;;;;;;;;;;;;;;21.67;29.91;97634.16;5034214;28;1903;-89
2021/04/27 09:11:25;;;;;;;;;;;;;;;21.56;29.76;97622.38;5000142;28;1237;-88
2021/04/27 09:14:12;;;;;;;;;;;;;;;21.44;30.17;97611.84;5033491;28;1234;-88
2021/04/27 09:16:38;;;;;;;;;;;;;;;21.57;29.91;97612.66;5032048;28;1201;-87
2021/04/27 09:19:05;;;;;;;;;;;;;;;22.15;29.83;97622.88;5018031;28;688;-88
2021/04/27 09:21:34;;;;;;;;;;;;;;;22.41;29.94;97610.19;5033007;28;1147;-88
2021/04/27 09:24:10;;;;;;;;;;;;;;;22.38;30.02;97624.47;5017899;28;1150;-88
2021/04/27 09:26:39;;;;;;;;;;;;;;;21.87;30.64;97627.44;5017532;28;1155;-88
2021/04/27 09:29:05;;;;;;;;;;;;;;;21.74;30.54;97622.59;4999107;28;1910;-88
2021/04/27 09:31:37;;;;;;;;;;;;;;;21.69;30.63;97620.31;5000191;28;1233;-88
2021/04/27 09:34:18;;;;;;;;;;;;;;;21.67;30.43;97617.16;5017882;28;1294;-88
2021/04/27 09:36:44;;;;;;;;;;;;;;;21.70;30.32;97604.91;5016901;28;1100;-88
2021/04/27 09:39:09;;;;;;;;;;;;;;;21.72;30.52;97605.25;5001164;28;1275;-88
2021/04/27 09:41:35;;;;;;;;;;;;;;;21.68;30.43;97601.75;4999881;28;1113;-88
2021/04/27 09:44:01;;;;;;;;;;;;;;;21.56;30.70;97611.84;5000377;28;1093;-87
2021/04/27 09:46:26;;;;;;;;;;;;;;;21.48;30.87;97604.03;4990303;28;1125;-88
2021/04/27 09:48:53;;;;;;;;;;;;;;;21.48;30.68;97593.50;4998444;28;1981;-88
2021/04/27 09:51:20;;;;;;;;;;;;;;;21.61;30.68;97593.50;5015905;28;1166;-88
2021/04/27 09:53:55;;;;;;;;;;;;;;;21.71;30.26;97589.53;5001173;28;1339;-88
2021/04/27 09:56:50;;;;;;;;;;;;;;;21.56;30.30;97600.53;5033146;28;849;-88
2021/04/27 09:59:21;;;;;;;;;;;;;;;21.63;30.33;97610.03;5015644;28;1048;-88
2021/04/27 10:01:48;;;;;;;;;;;;;;;21.57;30.34;97604.16;5014952;28;1046;-88
2021/04/27 10:04:14;;;;;;;;;;;;;;;21.54;30.54;97596.56;5014881;28;1061;-88
2021/04/27 10:06:41;;;;;;;;;;;;;;;21.53;30.60;97604.25;4999536;28;1175;-88
2021/04/27 10:09:07;;;;;;;;;;;;;;;21.63;30.36;97599.50;5015131;28;1879;-88
2021/04/27 10:11:36;;;;;;;;;;;;;;;21.65;30.09;97607.53;5015437;28;1176;-88
2021/04/27 10:14:03;;;;;;;;;;;;;;;21.59;30.34;97604.47;5016048;28;1173;-88
2021/04/27 10:16:35;;;;;;;;;;;;;;;21.50;30.30;97590.22;5031905;28;1073;-88
2021/04/27 10:19:00;;;;;;;;;;;;;;;21.50;30.63;97590.22;5015562;28;1319;-88
2021/04/27 10:21:26;;;;;;;;;;;;;;;21.54;30.43;97585.22;4998599;28;1090;-88
2021/04/27 10:23:57;;;;;;;;;;;;;;;21.57;30.08;97581.50;4999583;28;1487;-87
2021/04/27 10:26:23;;;;;;;;;;;;;;;21.62;30.23;97575.25;5031849;28;724;-87
2021/04/27 10:28:56;;;;;;;;;;;;;;;21.70;29.92;97575.81;4998785;28;1891;-88
2021/04/27 10:31:22;;;;;;;;;;;;;;;21.65;29.86;97580.00;5012811;28;1049;-86
2021/04/27 10:34:06;;;;;;;;;;;;;;;21.57;30.03;97584.34;4995423;28;1286;-85
2021/04/27 10:36:32;;;;;;;;;;;;;;;21.59;30.06;97581.81;5046923;28;558;-85
2021/04/27 10:39:03;;;;;;;;;;;;;;;21.68;30.06;97573.44;5014507;28;908;-87
2021/04/27 10:41:57;;;;;;;;;;;;;;;21.59;30.15;97570.50;4998604;28;1240;-86
2021/04/27 10:44:22;;;;;;;;;;;;;;;21.43;30.32;97576.31;5011762;28;1190;-88
2021/04/27 10:46:49;;;;;;;;;;;;;;;21.54;29.95;97574.69;5013414;28;1082;-86
2021/04/27 10:49:14;;;;;;;;;;;;;;;21.56;29.96;97577.09;4997782;28;1883;-88
2021/04/27 10:51:40;;;;;;;;;;;;;;;21.64;29.92;97567.09;5013687;28;1316;-85
2021/04/27 10:54:07;;;;;;;;;;;;;;;21.60;30.03;97563.59;5014234;28;1054;-88
2021/04/27 10:56:36;;;;;;;;;;;;;;;21.55;29.97;97564.16;5011575;28;1308;-87
2021/04/27 10:59:11;;;;;;;;;;;;;;;21.53;29.96;97566.66;5030104;28;1159;-86
2021/04/27 11:01:40;;;;;;;;;;;;;;;21.50;30.07;97556.25;5012471;28;1168;-86
2021/04/27 11:04:25;;;;;;;;;;;;;;;21.55;30.16;97555.66;5030635;28;974;-88
2021/04/27 11:07:10;;;;;;;;;;;;;;;21.98;30.34;97554.22;5014736;28;1199;-88
2021/04/27 11:09:35;;;;;;;;;;;;;;;22.23;30.44;97562.66;5015159;28;1944;-87
2021/04/27 11:12:20;;;;;;;;;;;;;;;22.43;29.77;97561.53;5032897;28;1095;-88
2021/04/27 11:15:14;;;;;;;;;;;;;;;21.86;30.64;97561.50;5018101;28;1045;-85
2021/04/27 11:17:56;;;;;;;;;;;;;;;21.69;30.56;97540.25;4999047;28;1255;-88
2021/04/27 11:20:40;;;;;;;;;;;;;;;21.65;30.69;97551.69;5017854;28;1253;-87
2021/04/27 11:23:09;;;;;;;;;;;;;;;21.64;30.75;97543.66;5052601;28;676;-87
2021/04/27 11:25:34;;;;;;;;;;;;;;;21.65;30.76;97545.22;5018155;28;1137;-88
2021/04/27 11:28:01;;;;;;;;;;;;;;;21.74;30.31;97540.47;5033786;28;1950;-87
2021/04/27 11:30:34;;;;;;;;;;;;;;;21.77;30.38;97530.28;5018219;28;1179;-88
2021/04/27 11:33:19;;;;;;;;;;;;;;;21.70;30.63;97536.94;5035110;28;1068;-87
2021/04/27 11:35:45;;;;;;;;;;;;;;;21.70;30.37;97528.47;5034199;28;987;-88
2021/04/27 11:38:11;;;;;;;;;;;;;;;21.76;30.08;97535.16;5034022;28;1205;-87
2021/04/27 11:40:41;;;;;;;;;;;;;;;21.79;30.21;97539.88;5001703;28;1194;-88
2021/04/27 11:43:10;;;;;;;;;;;;;;;21.63;30.38;97536.41;5035591;28;802;-88
2021/04/27 11:45:46;;;;;;;;;;;;;;;21.58;30.50;97529.28;5017361;28;1129;-88
2021/04/27 11:48:12;;;;;;;;;;;;;;;21.62;30.16;97524.31;5017910;28;1910;-87
2021/04/27 11:50:38;;;;;;;;;;;;;;;21.51;30.26;97526.72;5017378;28;1118;-87
2021/04/27 11:53:07;;;;;;;;;;;;;;;21.57;30.18;97516.38;5017195;28;1188;-86
2021/04/27 11:55:34;;;;;;;;;;;;;;;21.57;30.24;97522.06;5017736;28;791;-87
2021/04/27 11:58:00;;;;;;;;;;;;;;;21.54;30.42;97512.41;5033815;28;1140;-87
2021/04/27 12:00:30;;;;;;;;;;;;;;;21.77;29.69;97519.72;5017748;28;1105;-87
2021/04/27 12:02:56;;;;;;;;;;;;;;;21.51;30.37;97518.22;5033801;28;1052;-88
2021/04/27 12:05:22;;;;;;;;;;;;;;;21.55;30.45;97524.53;5016587;28;1080;-87
2021/04/27 12:07:48;;;;;;;;;;;;;;;21.60;30.32;97509.78;5016781;28;1303;-88
2021/04/27 12:10:13;;;;;;;;;;;;;;;21.56;30.35;97520.47;5017203;28;1962;-87
2021/04/27 12:12:46;;;;;;;;;;;;;;;21.49;30.00;97509.38;5033547;28;751;-87
2021/04/27 12:15:12;;;;;;;;;;;;;;;21.53;29.97;97505.19;5016882;28;1221;-87
2021/04/27 12:17:51;;;;;;;;;;;;;;;21.57;30.00;97507.91;5017807;28;1263;-87
2021/04/27 12:20:18;;;;;;;;;;;;;;;21.59;29.92;97509.00;5017885;28;1075;-86
2021/04/27 12:22:46;;;;;;;;;;;;;;;21.42;30.27;97501.13;5016268;28;1300;-87
2021/04/27 12:25:15;;;;;;;;;;;;;;;21.69;30.23;97498.56;5032938;28;1230;-87
2021/04/27 12:27:45;;;;;;;;;;;;;;;22.15;30.40;97495.34;5018131;28;699;-87
2021/04/27 12:30:15;;;;;;;;;;;;;;;22.34;30.00;97495.03;5017261;28;1883;-88
2021/04/27 12:32:59;;;;;;;;;;;;;;;22.32;29.83;97497.53;5017706;28;1164;-88
2021/04/27 12:35:26;;;;;;;;;;;;;;;21.94;30.10;97499.72;5034305;28;907;-87
2021/04/27 12:37:56;;;;;;;;;;;;;;;21.77;30.46;97497.06;5017342;28;1226;-87
2021/04/27 12:40:22;;;;;;;;;;;;;;;21.78;30.28;97493.00;5033407;28;1292;-88
2021/04/27 12:42:49;;;;;;;;;;;;;;;21.73;30.01;97496.41;5017324;28;1046;-87
2021/04/27 12:45:14;;;;;;;;;;;;;;;21.70;30.12;97497.31;5016630;28;728;-87
2021/04/27 12:47:40;;;;;;;;;;;;;;;21.67;30.11;97503.91;4999860;28;1298;-88
2021/04/27 12:50:12;;;;;;;;;;;;;;;21.78;30.32;97500.69;4999409;28;1887;-88
2021/04/27 12:52:49;;;;;;;;;;;;;;;21.67;30.19;97497.47;5033262;28;1187;-88
2021/04/27 12:55:22;;;;;;;;;;;;;;;21.60;30.39;97509.78;5016892;28;1025;-87
2021/04/27 12:57:47;;;;;;;;;;;;;;;21.56;30.49;97504.28;5016218;28;1181;-87
2021/04/27 13:00:18;;;;;;;;;;;;;;;21.57;30.49;97507.91;4999881;28;1178;-87
2021/04/27 13:02:44;;;;;;;;;;;;;;;21.58;30.37;97507.44;5015826;28;1308;-88
2021/04/27 13:05:10;;;;;;;;;;;;;;;21.61;30.27;97497.25;5014584;28;1282;-87
2021/04/27 13:07:36;;;;;;;;;;;;;;;21.67;30.19;97492.59;5015055;28;936;-87
2021/04/27 13:10:09;;;;;;;;;;;;;;;21.72;30.24;97488.38;5016520;28;1938;-87
2021/04/27 13:12:35;;;;;;;;;;;;;;;21.64;30.34;97493.47;5015653;28;1186;-87
2021/04/27 13:15:01;;;;;;;;;;;;;;;21.55;30.18;97496.22;4998981;28;1062;-85
2021/04/27 13:17:26;;;;;;;;;;;;;;;21.59;30.26;97488.41;5006842;28;1177;-88
2021/04/27 13:19:57;;;;;;;;;;;;;;;21.61;30.33;97494.41;5031526;28;878;-87
2021/04/27 13:22:27;;;;;;;;;;;;;;;21.73;29.90;97499.25;4999091;28;1284;-86